sensor_id;sensor_type;location;lat;lon;timestamp;P1;P2;P0
82151;PMS5003;71721;47.904;-122.188;2024-02-16T00:00:25;3;3;
82151;PMS5003;71721;47.904;-122.188;2024-02-16T00:02:51;3;3;
82151;PMS5003;71721;47.904;-122.188;2024-02-16T00:05:17;2;2;
82151;PMS5003;71721;47.904;-122.188;2024-02-16T00:07:42;3;3;
82151;PMS5003;71721;47.904;-122.188;2024-02-16T00:10:08;3;3;
82151;PMS5003;71721;47.904;-122.188;2024-02-16T00:12:34;2;2;
82151;PMS5003;71721;47.904;-122.188;2024-02-16T00:15:00;2;2;
82151;PMS5003;71721;47.904;-122.188;2024-02-16T00:17:25;3;3;
82151;PMS5003;71721;47.904;-122.188;2024-02-16T00:19:51;2;2;
82151;PMS5003;71721;47.904;-122.188;2024-02-16T00:22:17;2;2;
82151;PMS5003;71721;47.904;-122.188;2024-02-16T00:24:42;2;2;
82151;PMS5003;71721;47.904;-122.188;2024-02-16T00:27:08;2;2;
82151;PMS5003;71721;47.904;-122.188;2024-02-16T00:29:34;3;3;
82151;PMS5003;71721;47.904;-122.188;2024-02-16T00:32:00;2;2;
82151;PMS5003;71721;47.904;-122.188;2024-02-16T00:34:26;2;2;
82151;PMS5003;71721;47.904;-122.188;2024-02-16T00:36:51;2;2;
82151;PMS5003;71721;47.904;-122.188;2024-02-16T00:39:17;4;3;
82151;PMS5003;71721;47.904;-122.188;2024-02-16T00:41:43;13;12;
82151;PMS5003;71721;47.904;-122.188;2024-02-16T00:44:15;11;11;
82151;PMS5003;71721;47.904;-122.188;2024-02-16T00:46:35;6;6;
82151;PMS5003;71721;47.904;-122.188;2024-02-16T00:49:10;6;6;
82151;PMS5003;71721;47.904;-122.188;2024-02-16T00:51:25;4;4;
82151;PMS5003;71721;47.904;-122.188;2024-02-16T00:53:51;7;7;
82151;PMS5003;71721;47.904;-122.188;2024-02-16T00:56:17;4;4;
82151;PMS5003;71721;47.904;-122.188;2024-02-16T00:58:42;3;3;
82151;PMS5003;71721;47.904;-122.188;2024-02-16T01:01:08;3;3;
82151;PMS5003;71721;47.904;-122.188;2024-02-16T01:03:34;3;3;
82151;PMS5003;71721;47.904;-122.188;2024-02-16T01:05:59;3;3;
82151;PMS5003;71721;47.904;-122.188;2024-02-16T01:08:25;3;3;
82151;PMS5003;71721;47.904;-122.188;2024-02-16T01:10:51;2;2;
82151;PMS5003;71721;47.904;-122.188;2024-02-16T01:13:17;4;4;
82151;PMS5003;71721;47.904;-122.188;2024-02-16T01:15:42;4;3;
82151;PMS5003;71721;47.904;-122.188;2024-02-16T01:18:08;4;4;
82151;PMS5003;71721;47.904;-122.188;2024-02-16T01:20:34;6;6;
82151;PMS5003;71721;47.904;-122.188;2024-02-16T01:23:00;12;12;
82151;PMS5003;71721;47.904;-122.188;2024-02-16T01:25:25;32;30;
82151;PMS5003;71721;47.904;-122.188;2024-02-16T01:27:51;30;29;
82151;PMS5003;71721;47.904;-122.188;2024-02-16T01:30:16;32;29;
82151;PMS5003;71721;47.904;-122.188;2024-02-16T01:32:41;9;9;
82151;PMS5003;71721;47.904;-122.188;2024-02-16T01:35:07;4;4;
82151;PMS5003;71721;47.904;-122.188;2024-02-16T01:37:33;6;6;
82151;PMS5003;71721;47.904;-122.188;2024-02-16T01:39:58;3;3;
82151;PMS5003;71721;47.904;-122.188;2024-02-16T01:42:24;6;6;
82151;PMS5003;71721;47.904;-122.188;2024-02-16T01:44:50;6;6;
82151;PMS5003;71721;47.904;-122.188;2024-02-16T01:47:16;9;9;
82151;PMS5003;71721;47.904;-122.188;2024-02-16T01:49:42;9;9;
82151;PMS5003;71721;47.904;-122.188;2024-02-16T01:52:07;8;8;
82151;PMS5003;71721;47.904;-122.188;2024-02-16T01:54:33;7;7;
82151;PMS5003;71721;47.904;-122.188;2024-02-16T01:56:59;6;6;
82151;PMS5003;71721;47.904;-122.188;2024-02-16T01:59:25;4;4;
82151;PMS5003;71721;47.904;-122.188;2024-02-16T02:01:51;4;4;
82151;PMS5003;71721;47.904;-122.188;2024-02-16T02:04:16;7;6;
82151;PMS5003;71721;47.904;-122.188;2024-02-16T02:06:42;9;8;
82151;PMS5003;71721;47.904;-122.188;2024-02-16T02:09:08;9;8;
82151;PMS5003;71721;47.904;-122.188;2024-02-16T02:11:33;9;9;
82151;PMS5003;71721;47.904;-122.188;2024-02-16T02:13:59;12;12;
82151;PMS5003;71721;47.904;-122.188;2024-02-16T02:16:25;11;11;
82151;PMS5003;71721;47.904;-122.188;2024-02-16T02:18:51;11;11;
82151;PMS5003;71721;47.904;-122.188;2024-02-16T02:21:16;8;8;
82151;PMS5003;71721;47.904;-122.188;2024-02-16T02:23:42;8;8;
82151;PMS5003;71721;47.904;-122.188;2024-02-16T02:26:08;9;9;
82151;PMS5003;71721;47.904;-122.188;2024-02-16T02:28:34;13;11;
82151;PMS5003;71721;47.904;-122.188;2024-02-16T02:30:59;12;11;
82151;PMS5003;71721;47.904;-122.188;2024-02-16T02:33:25;9;9;
82151;PMS5003;71721;47.904;-122.188;2024-02-16T02:35:51;8;8;
82151;PMS5003;71721;47.904;-122.188;2024-02-16T02:38:17;7;7;
82151;PMS5003;71721;47.904;-122.188;2024-02-16T02:40:42;10;8;
82151;PMS5003;71721;47.904;-122.188;2024-02-16T02:43:08;7;7;
82151;PMS5003;71721;47.904;-122.188;2024-02-16T02:45:36;6;6;
82151;PMS5003;71721;47.904;-122.188;2024-02-16T02:48:00;8;7;
82151;PMS5003;71721;47.904;-122.188;2024-02-16T02:50:26;7;7;
82151;PMS5003;71721;47.904;-122.188;2024-02-16T02:52:52;7;7;
82151;PMS5003;71721;47.904;-122.188;2024-02-16T02:55:17;8;8;
82151;PMS5003;71721;47.904;-122.188;2024-02-16T02:57:43;6;6;
82151;PMS5003;71721;47.904;-122.188;2024-02-16T03:00:14;7;7;
82151;PMS5003;71721;47.904;-122.188;2024-02-16T03:02:35;8;8;
82151;PMS5003;71721;47.904;-122.188;2024-02-16T03:05:00;7;7;
82151;PMS5003;71721;47.904;-122.188;2024-02-16T03:07:26;6;6;
82151;PMS5003;71721;47.904;-122.188;2024-02-16T03:09:52;6;6;
82151;PMS5003;71721;47.904;-122.188;2024-02-16T03:12:18;8;8;
82151;PMS5003;71721;47.904;-122.188;2024-02-16T03:14:44;11;10;
82151;PMS5003;71721;47.904;-122.188;2024-02-16T03:17:09;8;8;
82151;PMS5003;71721;47.904;-122.188;2024-02-16T03:19:35;10;8;
82151;PMS5003;71721;47.904;-122.188;2024-02-16T03:22:01;8;7;
82151;PMS5003;71721;47.904;-122.188;2024-02-16T03:24:32;8;8;
82151;PMS5003;71721;47.904;-122.188;2024-02-16T03:26:52;8;8;
82151;PMS5003;71721;47.904;-122.188;2024-02-16T03:29:18;6;6;
82151;PMS5003;71721;47.904;-122.188;2024-02-16T03:31:44;8;7;
82151;PMS5003;71721;47.904;-122.188;2024-02-16T03:34:10;7;7;
82151;PMS5003;71721;47.904;-122.188;2024-02-16T03:36:36;8;8;
82151;PMS5003;71721;47.904;-122.188;2024-02-16T03:39:07;8;7;
82151;PMS5003;71721;47.904;-122.188;2024-02-16T03:41:27;6;6;
82151;PMS5003;71721;47.904;-122.188;2024-02-16T03:43:53;8;8;
82151;PMS5003;71721;47.904;-122.188;2024-02-16T03:46:19;8;8;
82151;PMS5003;71721;47.904;-122.188;2024-02-16T03:48:45;8;8;
82151;PMS5003;71721;47.904;-122.188;2024-02-16T03:51:10;8;7;
82151;PMS5003;71721;47.904;-122.188;2024-02-16T03:53:36;8;8;
82151;PMS5003;71721;47.904;-122.188;2024-02-16T03:56:02;7;7;
82151;PMS5003;71721;47.904;-122.188;2024-02-16T03:58:28;7;7;
82151;PMS5003;71721;47.904;-122.188;2024-02-16T04:00:54;6;6;
82151;PMS5003;71721;47.904;-122.188;2024-02-16T04:03:19;8;7;
82151;PMS5003;71721;47.904;-122.188;2024-02-16T04:05:45;7;6;
82151;PMS5003;71721;47.904;-122.188;2024-02-16T04:08:11;8;8;
82151;PMS5003;71721;47.904;-122.188;2024-02-16T04:10:36;6;6;
82151;PMS5003;71721;47.904;-122.188;2024-02-16T04:13:02;8;8;
82151;PMS5003;71721;47.904;-122.188;2024-02-16T04:15:28;8;7;
82151;PMS5003;71721;47.904;-122.188;2024-02-16T04:17:54;7;6;
82151;PMS5003;71721;47.904;-122.188;2024-02-16T04:20:20;6;6;
82151;PMS5003;71721;47.904;-122.188;2024-02-16T04:22:45;10;8;
82151;PMS5003;71721;47.904;-122.188;2024-02-16T04:25:11;8;7;
82151;PMS5003;71721;47.904;-122.188;2024-02-16T04:27:37;7;6;
82151;PMS5003;71721;47.904;-122.188;2024-02-16T04:30:03;7;7;
82151;PMS5003;71721;47.904;-122.188;2024-02-16T04:32:28;8;8;
82151;PMS5003;71721;47.904;-122.188;2024-02-16T04:34:54;8;8;
82151;PMS5003;71721;47.904;-122.188;2024-02-16T04:37:20;10;10;
82151;PMS5003;71721;47.904;-122.188;2024-02-16T04:39:46;7;7;
82151;PMS5003;71721;47.904;-122.188;2024-02-16T04:42:17;7;7;
82151;PMS5003;71721;47.904;-122.188;2024-02-16T04:44:39;8;7;
82151;PMS5003;71721;47.904;-122.188;2024-02-16T04:47:03;6;6;
82151;PMS5003;71721;47.904;-122.188;2024-02-16T04:49:29;7;7;
82151;PMS5003;71721;47.904;-122.188;2024-02-16T04:51:55;8;8;
82151;PMS5003;71721;47.904;-122.188;2024-02-16T04:54:21;8;8;
82151;PMS5003;71721;47.904;-122.188;2024-02-16T04:56:46;7;7;
82151;PMS5003;71721;47.904;-122.188;2024-02-16T04:59:12;8;7;
82151;PMS5003;71721;47.904;-122.188;2024-02-16T05:01:38;7;7;
82151;PMS5003;71721;47.904;-122.188;2024-02-16T05:04:04;8;8;
82151;PMS5003;71721;47.904;-122.188;2024-02-16T05:06:30;7;7;
82151;PMS5003;71721;47.904;-122.188;2024-02-16T05:08:56;8;8;
82151;PMS5003;71721;47.904;-122.188;2024-02-16T05:11:21;10;10;
82151;PMS5003;71721;47.904;-122.188;2024-02-16T05:13:47;7;7;
82151;PMS5003;71721;47.904;-122.188;2024-02-16T05:16:13;11;10;
82151;PMS5003;71721;47.904;-122.188;2024-02-16T05:18:38;7;7;
82151;PMS5003;71721;47.904;-122.188;2024-02-16T05:21:04;11;8;
82151;PMS5003;71721;47.904;-122.188;2024-02-16T05:23:30;8;7;
82151;PMS5003;71721;47.904;-122.188;2024-02-16T05:26:06;8;7;
82151;PMS5003;71721;47.904;-122.188;2024-02-16T05:28:22;8;8;
82151;PMS5003;71721;47.904;-122.188;2024-02-16T05:30:48;8;8;
82151;PMS5003;71721;47.904;-122.188;2024-02-16T05:33:14;10;10;
82151;PMS5003;71721;47.904;-122.188;2024-02-16T05:35:40;9;9;
82151;PMS5003;71721;47.904;-122.188;2024-02-16T05:38:05;8;8;
82151;PMS5003;71721;47.904;-122.188;2024-02-16T05:40:31;7;7;
82151;PMS5003;71721;47.904;-122.188;2024-02-16T05:42:57;7;7;
82151;PMS5003;71721;47.904;-122.188;2024-02-16T05:45:22;8;8;
82151;PMS5003;71721;47.904;-122.188;2024-02-16T05:47:48;8;8;
82151;PMS5003;71721;47.904;-122.188;2024-02-16T05:50:14;8;8;
82151;PMS5003;71721;47.904;-122.188;2024-02-16T05:52:40;7;7;
82151;PMS5003;71721;47.904;-122.188;2024-02-16T05:55:06;9;9;
82151;PMS5003;71721;47.904;-122.188;2024-02-16T05:57:31;7;7;
82151;PMS5003;71721;47.904;-122.188;2024-02-16T05:59:57;8;8;
82151;PMS5003;71721;47.904;-122.188;2024-02-16T06:02:23;7;7;
82151;PMS5003;71721;47.904;-122.188;2024-02-16T06:04:49;6;6;
82151;PMS5003;71721;47.904;-122.188;2024-02-16T06:07:15;10;10;
82151;PMS5003;71721;47.904;-122.188;2024-02-16T06:09:41;11;9;
82151;PMS5003;71721;47.904;-122.188;2024-02-16T06:12:07;7;6;
82151;PMS5003;71721;47.904;-122.188;2024-02-16T06:14:33;6;6;
82151;PMS5003;71721;47.904;-122.188;2024-02-16T06:16:58;11;10;
82151;PMS5003;71721;47.904;-122.188;2024-02-16T06:19:23;9;7;
82151;PMS5003;71721;47.904;-122.188;2024-02-16T06:21:49;7;7;
82151;PMS5003;71721;47.904;-122.188;2024-02-16T06:24:14;6;6;
82151;PMS5003;71721;47.904;-122.188;2024-02-16T06:26:39;10;10;
82151;PMS5003;71721;47.904;-122.188;2024-02-16T06:29:05;7;6;
82151;PMS5003;71721;47.904;-122.188;2024-02-16T06:31:30;6;6;
82151;PMS5003;71721;47.904;-122.188;2024-02-16T06:33:56;6;6;
82151;PMS5003;71721;47.904;-122.188;2024-02-16T06:36:21;5;5;
82151;PMS5003;71721;47.904;-122.188;2024-02-16T06:38:47;7;7;
82151;PMS5003;71721;47.904;-122.188;2024-02-16T06:41:13;7;6;
82151;PMS5003;71721;47.904;-122.188;2024-02-16T06:43:38;7;6;
82151;PMS5003;71721;47.904;-122.188;2024-02-16T06:46:03;6;6;
82151;PMS5003;71721;47.904;-122.188;2024-02-16T06:48:28;5;5;
82151;PMS5003;71721;47.904;-122.188;2024-02-16T06:50:53;7;6;
82151;PMS5003;71721;47.904;-122.188;2024-02-16T06:53:18;10;7;
82151;PMS5003;71721;47.904;-122.188;2024-02-16T06:55:43;6;6;
82151;PMS5003;71721;47.904;-122.188;2024-02-16T06:58:08;9;9;
82151;PMS5003;71721;47.904;-122.188;2024-02-16T07:00:33;5;5;
82151;PMS5003;71721;47.904;-122.188;2024-02-16T07:02:58;7;7;
82151;PMS5003;71721;47.904;-122.188;2024-02-16T07:05:23;6;6;
82151;PMS5003;71721;47.904;-122.188;2024-02-16T07:07:48;5;5;
82151;PMS5003;71721;47.904;-122.188;2024-02-16T07:10:13;6;6;
82151;PMS5003;71721;47.904;-122.188;2024-02-16T07:12:38;6;6;
82151;PMS5003;71721;47.904;-122.188;2024-02-16T07:15:03;5;5;
82151;PMS5003;71721;47.904;-122.188;2024-02-16T07:17:28;7;7;
82151;PMS5003;71721;47.904;-122.188;2024-02-16T07:19:53;7;6;
82151;PMS5003;71721;47.904;-122.188;2024-02-16T07:22:18;7;7;
82151;PMS5003;71721;47.904;-122.188;2024-02-16T07:24:43;6;6;
82151;PMS5003;71721;47.904;-122.188;2024-02-16T07:27:08;10;9;
82151;PMS5003;71721;47.904;-122.188;2024-02-16T07:29:33;9;9;
82151;PMS5003;71721;47.904;-122.188;2024-02-16T07:31:58;13;13;
82151;PMS5003;71721;47.904;-122.188;2024-02-16T07:34:23;11;11;
82151;PMS5003;71721;47.904;-122.188;2024-02-16T07:36:48;10;10;
82151;PMS5003;71721;47.904;-122.188;2024-02-16T07:39:15;15;13;
82151;PMS5003;71721;47.904;-122.188;2024-02-16T07:41:38;9;9;
82151;PMS5003;71721;47.904;-122.188;2024-02-16T07:44:03;10;10;
82151;PMS5003;71721;47.904;-122.188;2024-02-16T07:46:29;9;7;
82151;PMS5003;71721;47.904;-122.188;2024-02-16T07:48:55;13;13;
82151;PMS5003;71721;47.904;-122.188;2024-02-16T07:51:20;10;10;
82151;PMS5003;71721;47.904;-122.188;2024-02-16T07:53:44;7;7;
82151;PMS5003;71721;47.904;-122.188;2024-02-16T07:56:10;10;9;
82151;PMS5003;71721;47.904;-122.188;2024-02-16T07:58:35;9;9;
82151;PMS5003;71721;47.904;-122.188;2024-02-16T08:01:00;7;7;
82151;PMS5003;71721;47.904;-122.188;2024-02-16T08:03:25;6;6;
82151;PMS5003;71721;47.904;-122.188;2024-02-16T08:05:50;8;8;
82151;PMS5003;71721;47.904;-122.188;2024-02-16T08:08:15;9;9;
82151;PMS5003;71721;47.904;-122.188;2024-02-16T08:10:40;9;8;
82151;PMS5003;71721;47.904;-122.188;2024-02-16T08:13:05;6;6;
82151;PMS5003;71721;47.904;-122.188;2024-02-16T08:15:30;8;6;
82151;PMS5003;71721;47.904;-122.188;2024-02-16T08:17:55;5;5;
82151;PMS5003;71721;47.904;-122.188;2024-02-16T08:20:20;6;5;
82151;PMS5003;71721;47.904;-122.188;2024-02-16T08:22:45;5;5;
82151;PMS5003;71721;47.904;-122.188;2024-02-16T08:25:11;6;6;
82151;PMS5003;71721;47.904;-122.188;2024-02-16T08:27:35;5;5;
82151;PMS5003;71721;47.904;-122.188;2024-02-16T08:30:02;5;5;
82151;PMS5003;71721;47.904;-122.188;2024-02-16T08:32:25;6;6;
82151;PMS5003;71721;47.904;-122.188;2024-02-16T08:34:50;6;6;
82151;PMS5003;71721;47.904;-122.188;2024-02-16T08:37:15;6;5;
82151;PMS5003;71721;47.904;-122.188;2024-02-16T08:39:40;5;5;
82151;PMS5003;71721;47.904;-122.188;2024-02-16T08:42:06;6;6;
82151;PMS5003;71721;47.904;-122.188;2024-02-16T08:44:30;5;4;
82151;PMS5003;71721;47.904;-122.188;2024-02-16T08:46:56;8;8;
82151;PMS5003;71721;47.904;-122.188;2024-02-16T08:49:21;6;6;
82151;PMS5003;71721;47.904;-122.188;2024-02-16T08:51:46;5;4;
82151;PMS5003;71721;47.904;-122.188;2024-02-16T08:54:11;4;4;
82151;PMS5003;71721;47.904;-122.188;2024-02-16T08:56:36;5;5;
82151;PMS5003;71721;47.904;-122.188;2024-02-16T08:59:01;5;5;
82151;PMS5003;71721;47.904;-122.188;2024-02-16T09:01:30;4;4;
82151;PMS5003;71721;47.904;-122.188;2024-02-16T09:03:51;4;4;
82151;PMS5003;71721;47.904;-122.188;2024-02-16T09:06:16;4;4;
82151;PMS5003;71721;47.904;-122.188;2024-02-16T09:08:42;5;5;
82151;PMS5003;71721;47.904;-122.188;2024-02-16T09:11:11;5;5;
82151;PMS5003;71721;47.904;-122.188;2024-02-16T09:13:31;6;6;
82151;PMS5003;71721;47.904;-122.188;2024-02-16T09:15:56;6;5;
82151;PMS5003;71721;47.904;-122.188;2024-02-16T09:18:27;5;5;
82151;PMS5003;71721;47.904;-122.188;2024-02-16T09:20:46;4;4;
82151;PMS5003;71721;47.904;-122.188;2024-02-16T09:23:12;5;4;
82151;PMS5003;71721;47.904;-122.188;2024-02-16T09:25:37;5;5;
82151;PMS5003;71721;47.904;-122.188;2024-02-16T09:28:02;4;4;
82151;PMS5003;71721;47.904;-122.188;2024-02-16T09:30:27;4;4;
82151;PMS5003;71721;47.904;-122.188;2024-02-16T09:32:53;4;4;
82151;PMS5003;71721;47.904;-122.188;2024-02-16T09:35:22;6;6;
82151;PMS5003;71721;47.904;-122.188;2024-02-16T09:37:42;8;6;
82151;PMS5003;71721;47.904;-122.188;2024-02-16T09:40:07;5;5;
82151;PMS5003;71721;47.904;-122.188;2024-02-16T09:42:32;6;5;
82151;PMS5003;71721;47.904;-122.188;2024-02-16T09:44:57;6;5;
82151;PMS5003;71721;47.904;-122.188;2024-02-16T09:47:23;5;5;
82151;PMS5003;71721;47.904;-122.188;2024-02-16T09:49:47;4;4;
82151;PMS5003;71721;47.904;-122.188;2024-02-16T09:52:17;6;6;
82151;PMS5003;71721;47.904;-122.188;2024-02-16T09:54:38;6;5;
82151;PMS5003;71721;47.904;-122.188;2024-02-16T09:57:03;6;5;
82151;PMS5003;71721;47.904;-122.188;2024-02-16T09:59:28;5;5;
82151;PMS5003;71721;47.904;-122.188;2024-02-16T10:01:59;5;5;
82151;PMS5003;71721;47.904;-122.188;2024-02-16T10:04:18;8;6;
82151;PMS5003;71721;47.904;-122.188;2024-02-16T10:06:46;6;5;
82151;PMS5003;71721;47.904;-122.188;2024-02-16T10:09:08;6;5;
82151;PMS5003;71721;47.904;-122.188;2024-02-16T10:11:33;5;5;
82151;PMS5003;71721;47.904;-122.188;2024-02-16T10:13:59;5;5;
82151;PMS5003;71721;47.904;-122.188;2024-02-16T10:16:23;6;6;
82151;PMS5003;71721;47.904;-122.188;2024-02-16T10:18:48;6;6;
82151;PMS5003;71721;47.904;-122.188;2024-02-16T10:21:13;5;5;
82151;PMS5003;71721;47.904;-122.188;2024-02-16T10:23:38;4;4;
82151;PMS5003;71721;47.904;-122.188;2024-02-16T10:26:04;5;5;
82151;PMS5003;71721;47.904;-122.188;2024-02-16T10:28:28;4;4;
82151;PMS5003;71721;47.904;-122.188;2024-02-16T10:30:59;5;5;
82151;PMS5003;71721;47.904;-122.188;2024-02-16T10:33:18;4;4;
82151;PMS5003;71721;47.904;-122.188;2024-02-16T10:35:43;6;5;
82151;PMS5003;71721;47.904;-122.188;2024-02-16T10:38:09;5;5;
82151;PMS5003;71721;47.904;-122.188;2024-02-16T10:40:34;5;5;
82151;PMS5003;71721;47.904;-122.188;2024-02-16T10:42:59;5;5;
82151;PMS5003;71721;47.904;-122.188;2024-02-16T10:45:25;6;6;
82151;PMS5003;71721;47.904;-122.188;2024-02-16T10:47:50;4;4;
82151;PMS5003;71721;47.904;-122.188;2024-02-16T10:50:14;4;4;
82151;PMS5003;71721;47.904;-122.188;2024-02-16T10:52:39;4;4;
82151;PMS5003;71721;47.904;-122.188;2024-02-16T10:55:04;4;4;
82151;PMS5003;71721;47.904;-122.188;2024-02-16T10:57:29;2;2;
82151;PMS5003;71721;47.904;-122.188;2024-02-16T10:59:54;4;4;
82151;PMS5003;71721;47.904;-122.188;2024-02-16T11:02:19;4;4;
82151;PMS5003;71721;47.904;-122.188;2024-02-16T11:04:45;4;4;
82151;PMS5003;71721;47.904;-122.188;2024-02-16T11:07:11;2;2;
82151;PMS5003;71721;47.904;-122.188;2024-02-16T11:09:35;2;2;
82151;PMS5003;71721;47.904;-122.188;2024-02-16T11:12:00;2;2;
82151;PMS5003;71721;47.904;-122.188;2024-02-16T11:14:33;4;4;
82151;PMS5003;71721;47.904;-122.188;2024-02-16T11:16:53;4;4;
82151;PMS5003;71721;47.904;-122.188;2024-02-16T11:19:15;2;2;
82151;PMS5003;71721;47.904;-122.188;2024-02-16T11:21:40;2;2;
82151;PMS5003;71721;47.904;-122.188;2024-02-16T11:24:06;4;4;
82151;PMS5003;71721;47.904;-122.188;2024-02-16T11:26:30;2;2;
82151;PMS5003;71721;47.904;-122.188;2024-02-16T11:28:55;2;2;
82151;PMS5003;71721;47.904;-122.188;2024-02-16T11:31:21;5;4;
82151;PMS5003;71721;47.904;-122.188;2024-02-16T11:33:45;2;2;
82151;PMS5003;71721;47.904;-122.188;2024-02-16T11:36:10;4;4;
82151;PMS5003;71721;47.904;-122.188;2024-02-16T11:38:35;4;4;
82151;PMS5003;71721;47.904;-122.188;2024-02-16T11:41:01;2;2;
82151;PMS5003;71721;47.904;-122.188;2024-02-16T11:43:31;4;4;
82151;PMS5003;71721;47.904;-122.188;2024-02-16T11:45:52;2;2;
82151;PMS5003;71721;47.904;-122.188;2024-02-16T11:48:19;2;2;
82151;PMS5003;71721;47.904;-122.188;2024-02-16T11:50:42;1;1;
82151;PMS5003;71721;47.904;-122.188;2024-02-16T11:53:07;2;2;
82151;PMS5003;71721;47.904;-122.188;2024-02-16T11:55:32;1;1;
82151;PMS5003;71721;47.904;-122.188;2024-02-16T11:57:57;2;2;
82151;PMS5003;71721;47.904;-122.188;2024-02-16T12:00:22;4;4;
82151;PMS5003;71721;47.904;-122.188;2024-02-16T12:02:47;2;2;
82151;PMS5003;71721;47.904;-122.188;2024-02-16T12:05:13;2;2;
82151;PMS5003;71721;47.904;-122.188;2024-02-16T12:07:37;1;1;
82151;PMS5003;71721;47.904;-122.188;2024-02-16T12:10:03;2;2;
82151;PMS5003;71721;47.904;-122.188;2024-02-16T12:12:27;2;1;
82151;PMS5003;71721;47.904;-122.188;2024-02-16T12:14:52;2;2;
82151;PMS5003;71721;47.904;-122.188;2024-02-16T12:17:17;1;1;
82151;PMS5003;71721;47.904;-122.188;2024-02-16T12:19:43;2;2;
82151;PMS5003;71721;47.904;-122.188;2024-02-16T12:22:08;2;2;
82151;PMS5003;71721;47.904;-122.188;2024-02-16T12:24:33;1;1;
82151;PMS5003;71721;47.904;-122.188;2024-02-16T12:26:58;2;2;
82151;PMS5003;71721;47.904;-122.188;2024-02-16T12:29:23;1;1;
82151;PMS5003;71721;47.904;-122.188;2024-02-16T12:31:48;2;2;
82151;PMS5003;71721;47.904;-122.188;2024-02-16T12:34:13;2;2;
82151;PMS5003;71721;47.904;-122.188;2024-02-16T12:36:38;2;2;
82151;PMS5003;71721;47.904;-122.188;2024-02-16T12:39:03;2;2;
82151;PMS5003;71721;47.904;-122.188;2024-02-16T12:41:28;4;4;
82151;PMS5003;71721;47.904;-122.188;2024-02-16T12:43:53;5;2;
82151;PMS5003;71721;47.904;-122.188;2024-02-16T12:46:19;4;4;
82151;PMS5003;71721;47.904;-122.188;2024-02-16T12:48:44;2;2;
82151;PMS5003;71721;47.904;-122.188;2024-02-16T12:51:09;4;4;
82151;PMS5003;71721;47.904;-122.188;2024-02-16T12:53:34;2;2;
82151;PMS5003;71721;47.904;-122.188;2024-02-16T12:55:59;2;2;
82151;PMS5003;71721;47.904;-122.188;2024-02-16T12:58:25;2;2;
82151;PMS5003;71721;47.904;-122.188;2024-02-16T13:00:49;1;1;
82151;PMS5003;71721;47.904;-122.188;2024-02-16T13:03:14;2;2;
82151;PMS5003;71721;47.904;-122.188;2024-02-16T13:05:41;2;2;
82151;PMS5003;71721;47.904;-122.188;2024-02-16T13:08:06;4;2;
82151;PMS5003;71721;47.904;-122.188;2024-02-16T13:10:35;2;2;
82151;PMS5003;71721;47.904;-122.188;2024-02-16T13:12:54;4;4;
82151;PMS5003;71721;47.904;-122.188;2024-02-16T13:15:20;4;4;
82151;PMS5003;71721;47.904;-122.188;2024-02-16T13:17:45;2;2;
82151;PMS5003;71721;47.904;-122.188;2024-02-16T13:20:11;1;1;
82151;PMS5003;71721;47.904;-122.188;2024-02-16T13:22:35;2;2;
82151;PMS5003;71721;47.904;-122.188;2024-02-16T13:25:00;1;1;
82151;PMS5003;71721;47.904;-122.188;2024-02-16T13:27:25;2;2;
82151;PMS5003;71721;47.904;-122.188;2024-02-16T13:29:50;2;2;
82151;PMS5003;71721;47.904;-122.188;2024-02-16T13:32:15;2;2;
82151;PMS5003;71721;47.904;-122.188;2024-02-16T13:34:40;1;1;
82151;PMS5003;71721;47.904;-122.188;2024-02-16T13:37:05;2;2;
82151;PMS5003;71721;47.904;-122.188;2024-02-16T13:39:31;2;2;
82151;PMS5003;71721;47.904;-122.188;2024-02-16T13:41:56;5;4;
82151;PMS5003;71721;47.904;-122.188;2024-02-16T13:44:21;2;2;
82151;PMS5003;71721;47.904;-122.188;2024-02-16T13:46:46;2;2;
82151;PMS5003;71721;47.904;-122.188;2024-02-16T13:49:11;4;4;
82151;PMS5003;71721;47.904;-122.188;2024-02-16T13:51:36;2;2;
82151;PMS5003;71721;47.904;-122.188;2024-02-16T13:54:01;4;4;
82151;PMS5003;71721;47.904;-122.188;2024-02-16T13:56:26;4;4;
82151;PMS5003;71721;47.904;-122.188;2024-02-16T13:58:51;2;2;
82151;PMS5003;71721;47.904;-122.188;2024-02-16T14:01:17;4;4;
82151;PMS5003;71721;47.904;-122.188;2024-02-16T14:03:42;4;4;
82151;PMS5003;71721;47.904;-122.188;2024-02-16T14:06:07;2;2;
82151;PMS5003;71721;47.904;-122.188;2024-02-16T14:08:33;2;2;
82151;PMS5003;71721;47.904;-122.188;2024-02-16T14:10:58;2;2;
82151;PMS5003;71721;47.904;-122.188;2024-02-16T14:13:25;5;5;
82151;PMS5003;71721;47.904;-122.188;2024-02-16T14:15:48;6;5;
82151;PMS5003;71721;47.904;-122.188;2024-02-16T14:18:13;4;4;
82151;PMS5003;71721;47.904;-122.188;2024-02-16T14:20:38;5;4;
82151;PMS5003;71721;47.904;-122.188;2024-02-16T14:23:03;2;2;
82151;PMS5003;71721;47.904;-122.188;2024-02-16T14:25:28;4;4;
82151;PMS5003;71721;47.904;-122.188;2024-02-16T14:27:54;5;5;
82151;PMS5003;71721;47.904;-122.188;2024-02-16T14:30:19;5;5;
82151;PMS5003;71721;47.904;-122.188;2024-02-16T14:32:44;4;4;
82151;PMS5003;71721;47.904;-122.188;2024-02-16T14:35:09;4;4;
82151;PMS5003;71721;47.904;-122.188;2024-02-16T14:37:34;4;4;
82151;PMS5003;71721;47.904;-122.188;2024-02-16T14:39:59;5;5;
82151;PMS5003;71721;47.904;-122.188;2024-02-16T14:42:25;4;4;
82151;PMS5003;71721;47.904;-122.188;2024-02-16T14:44:50;4;4;
82151;PMS5003;71721;47.904;-122.188;2024-02-16T14:47:15;4;4;
82151;PMS5003;71721;47.904;-122.188;2024-02-16T14:49:40;4;4;
82151;PMS5003;71721;47.904;-122.188;2024-02-16T14:52:05;2;2;
82151;PMS5003;71721;47.904;-122.188;2024-02-16T14:54:30;2;2;
82151;PMS5003;71721;47.904;-122.188;2024-02-16T14:56:55;1;1;
82151;PMS5003;71721;47.904;-122.188;2024-02-16T14:59:20;4;4;
82151;PMS5003;71721;47.904;-122.188;2024-02-16T15:01:45;5;5;
82151;PMS5003;71721;47.904;-122.188;2024-02-16T15:04:10;5;4;
82151;PMS5003;71721;47.904;-122.188;2024-02-16T15:06:36;2;2;
82151;PMS5003;71721;47.904;-122.188;2024-02-16T15:09:01;4;4;
82151;PMS5003;71721;47.904;-122.188;2024-02-16T15:11:26;2;2;
82151;PMS5003;71721;47.904;-122.188;2024-02-16T15:13:51;1;1;
82151;PMS5003;71721;47.904;-122.188;2024-02-16T15:16:16;2;2;
82151;PMS5003;71721;47.904;-122.188;2024-02-16T15:18:41;4;4;
82151;PMS5003;71721;47.904;-122.188;2024-02-16T15:21:06;2;2;
82151;PMS5003;71721;47.904;-122.188;2024-02-16T15:23:32;4;4;
82151;PMS5003;71721;47.904;-122.188;2024-02-16T15:25:57;4;2;
82151;PMS5003;71721;47.904;-122.188;2024-02-16T15:28:22;2;2;
82151;PMS5003;71721;47.904;-122.188;2024-02-16T15:30:47;5;5;
82151;PMS5003;71721;47.904;-122.188;2024-02-16T15:33:12;4;4;
82151;PMS5003;71721;47.904;-122.188;2024-02-16T15:35:37;4;4;
82151;PMS5003;71721;47.904;-122.188;2024-02-16T15:38:03;5;5;
82151;PMS5003;71721;47.904;-122.188;2024-02-16T15:40:27;4;4;
82151;PMS5003;71721;47.904;-122.188;2024-02-16T15:43:00;5;5;
82151;PMS5003;71721;47.904;-122.188;2024-02-16T15:45:18;4;2;